»·PEaware :: WAT169 KLAS-KSNA

WAT169 :: KLAS-KSNA

FLIGHT INFORMATION

Flight Status: Arrived
Operator:
Walker Air Transport
More flights by this operator :: More flights under this callsign
Pilot: Marty P. (27464)
Aircraft: BOEING 737-800
(B738)
More flights by this aircraft type
Origin: KLAS McCarran Intl
United States
Destination: KSNA John Wayne-Orange Co
United States
More flights between these airports :: More routes between these airports
Route: BOACH8 WHIGG FEYLA DSNEE4
File this flight plan on PilotEdge
Remarks:
Altitude:
(Current/Filed)
28,000ft
Speed:
(Current/Filed)
480kts
Departed: 13-Jan-21 10:02 PM
Arrived: 13-Jan-21 10:44 PM
Distance/Time
Traveled:
197nm/0:42
Distance/Time
To Go:
Arrived

Flight Plot

Page will automatically refresh every two minutes.

Flight plan parsing failed; only flown route is shown


Map Options




Map Legend


Flown Route
Filed Route
Departure Airport
Arrival Airport
Navaid (VOR, NDB)
Fix

Horizontal Profiles

Position Reports

Time Latitude Longitude Heading Altitude Ground
Speed
13-Jan-21 21:44 36.080318 -115.147301 66 2099ft 0kts
13-Jan-21 21:45 36.080318 -115.147301 66 2099ft 0kts
13-Jan-21 21:46 36.080318 -115.147301 66 2099ft 0kts
13-Jan-21 21:47 36.080318 -115.147301 66 2099ft 0kts
13-Jan-21 21:48 36.080318 -115.147301 66 2099ft 0kts
13-Jan-21 21:49 36.080318 -115.147301 66 2099ft 0kts
13-Jan-21 21:50 36.080318 -115.147301 66 2099ft 0kts
13-Jan-21 21:51 36.080227 -115.147556 66 2100ft 2kts
13-Jan-21 21:52 36.080334 -115.148110 156 2102ft 0kts
13-Jan-21 21:53 36.079248 -115.147478 155 2101ft 0kts
13-Jan-21 21:54 36.079247 -115.147478 155 2101ft 0kts
13-Jan-21 21:55 36.078975 -115.147324 155 2101ft 7kts
13-Jan-21 21:56 36.078263 -115.142019 90 2085ft 18kts
13-Jan-21 21:57 36.078268 -115.137269 90 2073ft 16kts
13-Jan-21 21:58 36.078276 -115.130009 90 2051ft 24kts
13-Jan-21 21:59 36.078154 -115.122602 119 2039ft 10kts
13-Jan-21 22:00 36.076417 -115.121974 271 2041ft 10kts
13-Jan-21 22:01 36.076392 -115.165292 271 3154ft 185kts
13-Jan-21 22:02 36.069921 -115.238998 243 5658ft 249kts
13-Jan-21 22:03 36.008116 -115.284722 201 6998ft 266kts
13-Jan-21 22:04 35.932729 -115.306301 187 10557ft 292kts
13-Jan-21 22:05 35.838519 -115.312819 177 12450ft 380kts
13-Jan-21 22:06 35.731535 -115.301744 183 15848ft 394kts
13-Jan-21 22:07 35.635089 -115.356004 227 18819ft 394kts
13-Jan-21 22:08 35.559170 -115.455281 231 21380ft 406kts
13-Jan-21 22:09 35.482119 -115.558681 232 23666ft 417kts
13-Jan-21 22:10 35.403582 -115.664529 232 25577ft 430kts
13-Jan-21 22:11 35.321669 -115.774737 232 27294ft 443kts
13-Jan-21 22:12 35.237060 -115.888312 232 28333ft 469kts
13-Jan-21 22:13 35.143045 -116.007970 230 28318ft 489kts
13-Jan-21 22:14 35.048882 -116.126097 230 28331ft 488kts
13-Jan-21 22:15 34.955257 -116.243464 231 28332ft 458kts
13-Jan-21 22:16 34.868332 -116.352464 231 28326ft 456kts
13-Jan-21 22:17 34.781115 -116.463354 231 28319ft 452kts
13-Jan-21 22:18 34.693810 -116.571788 226 28308ft 431kts
13-Jan-21 22:19 34.603144 -116.662620 224 26045ft 432kts
13-Jan-21 22:20 34.513033 -116.751067 225 22281ft 408kts
13-Jan-21 22:21 34.433257 -116.841958 227 18907ft 375kts
13-Jan-21 22:22 34.362652 -116.923839 228 16941ft 332kts
13-Jan-21 22:23 34.297556 -116.998920 227 14878ft 311kts
13-Jan-21 22:24 34.232662 -117.058447 214 14057ft 278kts
13-Jan-21 22:25 34.151808 -117.113238 206 13028ft 348kts
13-Jan-21 22:26 34.087636 -117.196590 241 11416ft 339kts
13-Jan-21 22:27 34.041224 -117.287838 240 9404ft 302kts
13-Jan-21 22:28 33.999457 -117.369988 240 8020ft 261kts
13-Jan-21 22:29 33.961531 -117.444643 240 8023ft 260kts
13-Jan-21 22:30 33.923930 -117.518642 240 8024ft 260kts
13-Jan-21 22:31 33.886230 -117.592810 240 8024ft 256kts
13-Jan-21 22:32 33.850190 -117.663677 239 7909ft 253kts
13-Jan-21 22:33 33.811801 -117.739196 239 6020ft 258kts
13-Jan-21 22:34 33.771054 -117.807901 218 3500ft 259kts
13-Jan-21 22:35 33.709128 -117.847186 207 1371ft 226kts
13-Jan-21 22:36 33.662102 -117.878462 223 1739ft 189kts
13-Jan-21 22:37 33.682325 -117.918146 350 1698ft 179kts
13-Jan-21 22:38 33.731915 -117.913753 26 1998ft 187kts
13-Jan-21 22:39 33.771571 -117.887240 50 1960ft 156kts
13-Jan-21 22:40 33.760366 -117.840737 147 1734ft 158kts
13-Jan-21 22:41 33.719253 -117.840974 205 920ft 153kts
13-Jan-21 22:42 33.681932 -117.864891 207 110ft 151kts
13-Jan-21 22:43 33.669093 -117.871234 88 66ft 6kts
13-Jan-21 22:44 33.670932 -117.869046 40 66ft 15kts
13-Jan-21 22:45 33.673982 -117.866544 27 66ft 11kts
13-Jan-21 22:46 33.675154 -117.865516 101 66ft 2kts
13-Jan-21 22:47 33.675014 -117.865103 117 66ft 0kts
13-Jan-21 22:48 33.675014 -117.865103 117 66ft 0kts
13-Jan-21 22:49 33.675014 -117.865103 117 66ft 0kts
13-Jan-21 22:50 33.675014 -117.865103 117 66ft 0kts
13-Jan-21 22:51 33.675014 -117.865103 117 66ft 0kts
13-Jan-21 22:52 33.675014 -117.865103 117 66ft 0kts
13-Jan-21 22:53 33.675014 -117.865103 117 66ft 0kts
13-Jan-21 22:54 33.675014 -117.865103 117 66ft 0kts
13-Jan-21 22:56 33.675014 -117.865103 117 66ft 0kts
13-Jan-21 22:57 33.675014 -117.865103 117 66ft 0kts

Navigation Log

Ident Type
Flight plan parsing failed, navigation log unavailable